sensor_id;sensor_type;location;lat;lon;timestamp;temperature;humidity
15556;DHT22;7879;48.660;9.116;2024-02-15T00:00:00;9.30;99.90
15556;DHT22;7879;48.660;9.116;2024-02-15T00:02:28;9.30;99.90
15556;DHT22;7879;48.660;9.116;2024-02-15T00:04:55;9.30;99.90
15556;DHT22;7879;48.660;9.116;2024-02-15T00:07:23;9.30;99.90
15556;DHT22;7879;48.660;9.116;2024-02-15T00:09:50;9.20;99.90
15556;DHT22;7879;48.660;9.116;2024-02-15T00:12:18;9.20;99.90
15556;DHT22;7879;48.660;9.116;2024-02-15T00:14:45;9.20;99.90
15556;DHT22;7879;48.660;9.116;2024-02-15T00:17:12;9.20;99.90
15556;DHT22;7879;48.660;9.116;2024-02-15T00:19:39;9.20;99.90
15556;DHT22;7879;48.660;9.116;2024-02-15T00:22:08;9.10;99.90
15556;DHT22;7879;48.660;9.116;2024-02-15T00:24:37;9.10;99.90
15556;DHT22;7879;48.660;9.116;2024-02-15T00:27:05;9.10;99.90
15556;DHT22;7879;48.660;9.116;2024-02-15T00:29:32;9.10;99.90
15556;DHT22;7879;48.660;9.116;2024-02-15T00:32:01;9.10;99.90
15556;DHT22;7879;48.660;9.116;2024-02-15T00:34:31;9.00;99.90
15556;DHT22;7879;48.660;9.116;2024-02-15T00:36:58;9.10;99.90
15556;DHT22;7879;48.660;9.116;2024-02-15T00:39:25;9.10;99.90
15556;DHT22;7879;48.660;9.116;2024-02-15T00:41:52;9.10;99.90
15556;DHT22;7879;48.660;9.116;2024-02-15T00:44:19;9.10;99.90
15556;DHT22;7879;48.660;9.116;2024-02-15T00:46:46;9.10;99.90
15556;DHT22;7879;48.660;9.116;2024-02-15T00:49:15;9.10;99.90
15556;DHT22;7879;48.660;9.116;2024-02-15T00:51:42;9.10;99.90
15556;DHT22;7879;48.660;9.116;2024-02-15T00:54:09;9.10;99.90
15556;DHT22;7879;48.660;9.116;2024-02-15T00:56:36;9.00;99.90
15556;DHT22;7879;48.660;9.116;2024-02-15T00:59:03;9.00;99.90
15556;DHT22;7879;48.660;9.116;2024-02-15T01:01:32;9.00;99.90
15556;DHT22;7879;48.660;9.116;2024-02-15T01:03:59;9.00;99.90
15556;DHT22;7879;48.660;9.116;2024-02-15T01:06:26;8.90;99.90
15556;DHT22;7879;48.660;9.116;2024-02-15T01:08:53;8.90;99.90
15556;DHT22;7879;48.660;9.116;2024-02-15T01:11:20;8.90;99.90
15556;DHT22;7879;48.660;9.116;2024-02-15T01:13:47;8.90;99.90
15556;DHT22;7879;48.660;9.116;2024-02-15T01:16:14;8.90;99.90
15556;DHT22;7879;48.660;9.116;2024-02-15T01:18:42;8.90;99.90
15556;DHT22;7879;48.660;9.116;2024-02-15T01:21:09;8.80;99.90
15556;DHT22;7879;48.660;9.116;2024-02-15T01:23:38;8.80;99.90
15556;DHT22;7879;48.660;9.116;2024-02-15T01:26:05;8.80;99.90
15556;DHT22;7879;48.660;9.116;2024-02-15T01:28:32;8.70;99.90
15556;DHT22;7879;48.660;9.116;2024-02-15T01:30:59;8.70;99.90
15556;DHT22;7879;48.660;9.116;2024-02-15T01:33:27;8.70;99.90
15556;DHT22;7879;48.660;9.116;2024-02-15T01:35:54;8.70;99.90
15556;DHT22;7879;48.660;9.116;2024-02-15T01:38:21;8.70;99.90
15556;DHT22;7879;48.660;9.116;2024-02-15T01:40:48;8.70;99.90
15556;DHT22;7879;48.660;9.116;2024-02-15T01:43:15;8.60;99.90
15556;DHT22;7879;48.660;9.116;2024-02-15T01:45:42;8.60;99.90
15556;DHT22;7879;48.660;9.116;2024-02-15T01:48:10;8.60;99.90
15556;DHT22;7879;48.660;9.116;2024-02-15T01:50:38;8.60;99.90
15556;DHT22;7879;48.660;9.116;2024-02-15T01:53:07;8.60;99.90
15556;DHT22;7879;48.660;9.116;2024-02-15T01:55:37;8.50;99.90
15556;DHT22;7879;48.660;9.116;2024-02-15T01:58:04;8.50;99.90
15556;DHT22;7879;48.660;9.116;2024-02-15T02:00:31;8.50;99.90
15556;DHT22;7879;48.660;9.116;2024-02-15T02:02:59;8.50;99.90
15556;DHT22;7879;48.660;9.116;2024-02-15T02:05:30;8.40;99.90
15556;DHT22;7879;48.660;9.116;2024-02-15T02:07:58;8.30;99.90
15556;DHT22;7879;48.660;9.116;2024-02-15T02:10:28;8.20;99.90
15556;DHT22;7879;48.660;9.116;2024-02-15T02:13:00;8.10;99.90
15556;DHT22;7879;48.660;9.116;2024-02-15T02:15:30;8.00;99.90
15556;DHT22;7879;48.660;9.116;2024-02-15T02:18:01;8.00;99.90
15556;DHT22;7879;48.660;9.116;2024-02-15T02:20:28;7.90;99.90
15556;DHT22;7879;48.660;9.116;2024-02-15T02:23:25;7.90;99.90
15556;DHT22;7879;48.660;9.116;2024-02-15T02:25:54;7.90;99.90
15556;DHT22;7879;48.660;9.116;2024-02-15T02:28:22;7.80;99.90
15556;DHT22;7879;48.660;9.116;2024-02-15T02:30:49;7.90;99.90
15556;DHT22;7879;48.660;9.116;2024-02-15T02:33:16;7.80;99.90
15556;DHT22;7879;48.660;9.116;2024-02-15T02:35:49;7.80;99.90
15556;DHT22;7879;48.660;9.116;2024-02-15T02:38:16;7.70;99.90
15556;DHT22;7879;48.660;9.116;2024-02-15T02:40:43;7.70;99.90
15556;DHT22;7879;48.660;9.116;2024-02-15T02:43:10;7.70;99.90
15556;DHT22;7879;48.660;9.116;2024-02-15T02:45:37;7.70;99.90
15556;DHT22;7879;48.660;9.116;2024-02-15T02:48:04;7.60;99.90
15556;DHT22;7879;48.660;9.116;2024-02-15T02:50:32;7.60;99.90
15556;DHT22;7879;48.660;9.116;2024-02-15T02:52:59;7.50;99.90
15556;DHT22;7879;48.660;9.116;2024-02-15T02:55:26;7.50;99.90
15556;DHT22;7879;48.660;9.116;2024-02-15T02:57:54;7.40;99.90
15556;DHT22;7879;48.660;9.116;2024-02-15T03:00:21;7.30;99.90
15556;DHT22;7879;48.660;9.116;2024-02-15T03:02:49;7.20;99.90
15556;DHT22;7879;48.660;9.116;2024-02-15T03:05:16;7.20;99.90
15556;DHT22;7879;48.660;9.116;2024-02-15T03:07:44;7.10;99.90
15556;DHT22;7879;48.660;9.116;2024-02-15T03:10:11;7.10;99.90
15556;DHT22;7879;48.660;9.116;2024-02-15T03:12:41;7.00;99.90
15556;DHT22;7879;48.660;9.116;2024-02-15T03:15:15;7.00;99.90
15556;DHT22;7879;48.660;9.116;2024-02-15T03:17:44;7.00;99.90
15556;DHT22;7879;48.660;9.116;2024-02-15T03:20:11;7.00;99.90
15556;DHT22;7879;48.660;9.116;2024-02-15T03:22:59;6.90;99.90
15556;DHT22;7879;48.660;9.116;2024-02-15T03:25:28;6.90;99.90
15556;DHT22;7879;48.660;9.116;2024-02-15T03:27:59;6.90;99.90
15556;DHT22;7879;48.660;9.116;2024-02-15T03:30:32;6.90;99.90
15556;DHT22;7879;48.660;9.116;2024-02-15T03:33:01;6.80;99.90
15556;DHT22;7879;48.660;9.116;2024-02-15T03:35:32;6.80;99.90
15556;DHT22;7879;48.660;9.116;2024-02-15T03:37:59;6.80;99.90
15556;DHT22;7879;48.660;9.116;2024-02-15T03:40:27;6.70;99.90
15556;DHT22;7879;48.660;9.116;2024-02-15T03:42:54;6.60;99.90
15556;DHT22;7879;48.660;9.116;2024-02-15T03:45:21;6.50;99.90
15556;DHT22;7879;48.660;9.116;2024-02-15T03:47:53;6.50;99.90
15556;DHT22;7879;48.660;9.116;2024-02-15T03:50:20;6.50;99.90
15556;DHT22;7879;48.660;9.116;2024-02-15T03:52:49;6.50;99.90
15556;DHT22;7879;48.660;9.116;2024-02-15T03:55:19;6.50;99.90
15556;DHT22;7879;48.660;9.116;2024-02-15T03:57:49;6.40;99.90
15556;DHT22;7879;48.660;9.116;2024-02-15T04:00:16;6.40;99.90
15556;DHT22;7879;48.660;9.116;2024-02-15T04:02:48;6.40;99.90
15556;DHT22;7879;48.660;9.116;2024-02-15T04:05:16;6.40;99.90
15556;DHT22;7879;48.660;9.116;2024-02-15T04:07:45;6.40;99.90
15556;DHT22;7879;48.660;9.116;2024-02-15T04:10:12;6.30;99.90
15556;DHT22;7879;48.660;9.116;2024-02-15T04:12:39;6.30;99.90
15556;DHT22;7879;48.660;9.116;2024-02-15T04:15:09;6.30;99.90
15556;DHT22;7879;48.660;9.116;2024-02-15T04:17:41;6.30;99.90
15556;DHT22;7879;48.660;9.116;2024-02-15T04:20:10;6.30;99.90
15556;DHT22;7879;48.660;9.116;2024-02-15T04:22:38;6.30;99.90
15556;DHT22;7879;48.660;9.116;2024-02-15T04:25:06;6.30;99.90
15556;DHT22;7879;48.660;9.116;2024-02-15T04:27:34;6.30;99.90
15556;DHT22;7879;48.660;9.116;2024-02-15T04:30:02;6.30;99.90
15556;DHT22;7879;48.660;9.116;2024-02-15T04:32:30;6.30;99.90
15556;DHT22;7879;48.660;9.116;2024-02-15T04:35:01;6.30;99.90
15556;DHT22;7879;48.660;9.116;2024-02-15T04:37:29;6.30;99.90
15556;DHT22;7879;48.660;9.116;2024-02-15T04:39:59;6.30;99.90
15556;DHT22;7879;48.660;9.116;2024-02-15T04:42:35;6.30;99.90
15556;DHT22;7879;48.660;9.116;2024-02-15T04:45:04;6.30;99.90
15556;DHT22;7879;48.660;9.116;2024-02-15T04:47:35;6.30;99.90
15556;DHT22;7879;48.660;9.116;2024-02-15T04:50:03;6.40;99.90
15556;DHT22;7879;48.660;9.116;2024-02-15T04:52:33;6.40;99.90
15556;DHT22;7879;48.660;9.116;2024-02-15T04:55:00;6.40;99.90
15556;DHT22;7879;48.660;9.116;2024-02-15T04:57:27;6.40;99.90
15556;DHT22;7879;48.660;9.116;2024-02-15T04:59:55;6.40;99.90
15556;DHT22;7879;48.660;9.116;2024-02-15T05:02:22;6.40;99.90
15556;DHT22;7879;48.660;9.116;2024-02-15T05:04:51;6.40;99.90
15556;DHT22;7879;48.660;9.116;2024-02-15T05:07:24;6.50;99.90
15556;DHT22;7879;48.660;9.116;2024-02-15T05:09:51;6.50;99.90
15556;DHT22;7879;48.660;9.116;2024-02-15T05:12:22;6.50;99.90
15556;DHT22;7879;48.660;9.116;2024-02-15T05:14:52;6.50;99.90
15556;DHT22;7879;48.660;9.116;2024-02-15T05:17:20;6.40;99.90
15556;DHT22;7879;48.660;9.116;2024-02-15T05:19:49;6.50;99.90
15556;DHT22;7879;48.660;9.116;2024-02-15T05:22:16;6.50;99.90
15556;DHT22;7879;48.660;9.116;2024-02-15T05:24:45;6.50;99.90
15556;DHT22;7879;48.660;9.116;2024-02-15T05:27:12;6.40;99.90
15556;DHT22;7879;48.660;9.116;2024-02-15T05:29:39;6.50;99.90
15556;DHT22;7879;48.660;9.116;2024-02-15T05:32:08;6.40;99.90
15556;DHT22;7879;48.660;9.116;2024-02-15T05:34:35;6.40;99.90
15556;DHT22;7879;48.660;9.116;2024-02-15T05:37:06;6.40;99.90
15556;DHT22;7879;48.660;9.116;2024-02-15T05:39:33;6.40;99.90
15556;DHT22;7879;48.660;9.116;2024-02-15T05:42:01;6.40;99.90
15556;DHT22;7879;48.660;9.116;2024-02-15T05:44:28;6.40;99.90
15556;DHT22;7879;48.660;9.116;2024-02-15T05:46:56;6.40;99.90
15556;DHT22;7879;48.660;9.116;2024-02-15T05:49:23;6.40;99.90
15556;DHT22;7879;48.660;9.116;2024-02-15T05:51:53;6.40;99.90
15556;DHT22;7879;48.660;9.116;2024-02-15T05:54:23;6.40;99.90
15556;DHT22;7879;48.660;9.116;2024-02-15T05:56:52;6.40;99.90
15556;DHT22;7879;48.660;9.116;2024-02-15T05:59:22;6.40;99.90
15556;DHT22;7879;48.660;9.116;2024-02-15T06:01:49;6.40;99.90
15556;DHT22;7879;48.660;9.116;2024-02-15T06:04:19;6.40;99.90
15556;DHT22;7879;48.660;9.116;2024-02-15T06:06:47;6.30;99.90
15556;DHT22;7879;48.660;9.116;2024-02-15T06:09:17;6.30;99.90
15556;DHT22;7879;48.660;9.116;2024-02-15T06:11:48;6.20;99.90
15556;DHT22;7879;48.660;9.116;2024-02-15T06:14:17;6.20;99.90
15556;DHT22;7879;48.660;9.116;2024-02-15T06:16:45;6.20;99.90
15556;DHT22;7879;48.660;9.116;2024-02-15T06:19:14;6.20;99.90
15556;DHT22;7879;48.660;9.116;2024-02-15T06:21:42;6.20;99.90
15556;DHT22;7879;48.660;9.116;2024-02-15T06:24:09;6.20;99.90
15556;DHT22;7879;48.660;9.116;2024-02-15T06:26:37;6.10;99.90
15556;DHT22;7879;48.660;9.116;2024-02-15T06:29:06;6.10;99.90
15556;DHT22;7879;48.660;9.116;2024-02-15T06:31:51;6.10;99.90
15556;DHT22;7879;48.660;9.116;2024-02-15T06:34:37;6.00;99.90
15556;DHT22;7879;48.660;9.116;2024-02-15T06:37:36;6.00;99.90
15556;DHT22;7879;48.660;9.116;2024-02-15T06:40:22;6.00;99.90
15556;DHT22;7879;48.660;9.116;2024-02-15T06:42:51;6.00;99.90
15556;DHT22;7879;48.660;9.116;2024-02-15T06:45:18;6.00;99.90
15556;DHT22;7879;48.660;9.116;2024-02-15T06:47:46;6.00;99.90
15556;DHT22;7879;48.660;9.116;2024-02-15T06:50:14;6.00;99.90
15556;DHT22;7879;48.660;9.116;2024-02-15T06:52:43;6.00;99.90
15556;DHT22;7879;48.660;9.116;2024-02-15T06:55:13;6.00;99.90
15556;DHT22;7879;48.660;9.116;2024-02-15T06:57:41;6.00;99.90
15556;DHT22;7879;48.660;9.116;2024-02-15T07:00:10;6.00;99.90
15556;DHT22;7879;48.660;9.116;2024-02-15T07:02:42;6.00;99.90
15556;DHT22;7879;48.660;9.116;2024-02-15T07:05:11;6.00;99.90
15556;DHT22;7879;48.660;9.116;2024-02-15T07:07:38;6.00;99.90
15556;DHT22;7879;48.660;9.116;2024-02-15T07:10:06;6.00;99.90
15556;DHT22;7879;48.660;9.116;2024-02-15T07:12:34;6.00;99.90
15556;DHT22;7879;48.660;9.116;2024-02-15T07:15:01;6.00;99.90
15556;DHT22;7879;48.660;9.116;2024-02-15T07:17:30;6.00;99.90
15556;DHT22;7879;48.660;9.116;2024-02-15T07:19:57;6.00;99.90
15556;DHT22;7879;48.660;9.116;2024-02-15T07:22:25;6.10;99.90
15556;DHT22;7879;48.660;9.116;2024-02-15T07:24:52;6.10;99.90
15556;DHT22;7879;48.660;9.116;2024-02-15T07:27:19;6.10;99.90
15556;DHT22;7879;48.660;9.116;2024-02-15T07:29:46;6.10;99.90
15556;DHT22;7879;48.660;9.116;2024-02-15T07:32:13;6.20;99.90
15556;DHT22;7879;48.660;9.116;2024-02-15T07:34:40;6.20;99.90
15556;DHT22;7879;48.660;9.116;2024-02-15T07:37:08;6.20;99.90
15556;DHT22;7879;48.660;9.116;2024-02-15T07:39:36;6.30;99.90
15556;DHT22;7879;48.660;9.116;2024-02-15T07:42:03;6.40;99.90
15556;DHT22;7879;48.660;9.116;2024-02-15T07:44:35;6.40;99.90
15556;DHT22;7879;48.660;9.116;2024-02-15T07:47:03;6.50;99.90
15556;DHT22;7879;48.660;9.116;2024-02-15T07:49:31;6.60;99.90
15556;DHT22;7879;48.660;9.116;2024-02-15T07:52:00;6.70;99.90
15556;DHT22;7879;48.660;9.116;2024-02-15T07:54:27;6.80;99.90
15556;DHT22;7879;48.660;9.116;2024-02-15T07:56:56;6.90;99.90
15556;DHT22;7879;48.660;9.116;2024-02-15T07:59:25;7.00;99.90
15556;DHT22;7879;48.660;9.116;2024-02-15T08:01:52;7.10;99.90
15556;DHT22;7879;48.660;9.116;2024-02-15T08:04:19;7.20;99.90
15556;DHT22;7879;48.660;9.116;2024-02-15T08:06:50;7.30;99.90
15556;DHT22;7879;48.660;9.116;2024-02-15T08:09:20;7.40;99.90
15556;DHT22;7879;48.660;9.116;2024-02-15T08:11:51;7.50;99.90
15556;DHT22;7879;48.660;9.116;2024-02-15T08:14:18;7.60;99.90
15556;DHT22;7879;48.660;9.116;2024-02-15T08:16:47;7.60;99.90
15556;DHT22;7879;48.660;9.116;2024-02-15T08:19:14;7.70;99.90
15556;DHT22;7879;48.660;9.116;2024-02-15T08:21:41;7.80;99.90
15556;DHT22;7879;48.660;9.116;2024-02-15T08:24:13;7.90;99.90
15556;DHT22;7879;48.660;9.116;2024-02-15T08:26:40;7.90;99.90
15556;DHT22;7879;48.660;9.116;2024-02-15T08:29:11;8.00;99.90
15556;DHT22;7879;48.660;9.116;2024-02-15T08:31:41;8.00;99.90
15556;DHT22;7879;48.660;9.116;2024-02-15T08:34:09;8.10;99.90
15556;DHT22;7879;48.660;9.116;2024-02-15T08:36:40;8.20;99.90
15556;DHT22;7879;48.660;9.116;2024-02-15T08:39:08;8.20;99.90
15556;DHT22;7879;48.660;9.116;2024-02-15T08:41:39;8.30;99.90
15556;DHT22;7879;48.660;9.116;2024-02-15T08:44:07;8.30;99.90
15556;DHT22;7879;48.660;9.116;2024-02-15T08:46:38;8.40;99.90
15556;DHT22;7879;48.660;9.116;2024-02-15T08:49:05;8.40;99.90
15556;DHT22;7879;48.660;9.116;2024-02-15T08:51:32;8.50;99.90
15556;DHT22;7879;48.660;9.116;2024-02-15T08:54:00;8.50;99.90
15556;DHT22;7879;48.660;9.116;2024-02-15T08:56:27;8.50;99.90
15556;DHT22;7879;48.660;9.116;2024-02-15T08:58:55;8.60;99.90
15556;DHT22;7879;48.660;9.116;2024-02-15T09:01:28;8.70;99.90
15556;DHT22;7879;48.660;9.116;2024-02-15T09:03:58;8.70;99.90
15556;DHT22;7879;48.660;9.116;2024-02-15T09:06:27;8.80;99.90
15556;DHT22;7879;48.660;9.116;2024-02-15T09:08:54;8.80;99.90
15556;DHT22;7879;48.660;9.116;2024-02-15T09:11:21;8.90;99.90
15556;DHT22;7879;48.660;9.116;2024-02-15T09:13:48;9.00;99.90
15556;DHT22;7879;48.660;9.116;2024-02-15T09:16:18;9.10;99.90
15556;DHT22;7879;48.660;9.116;2024-02-15T09:18:45;9.20;99.90
15556;DHT22;7879;48.660;9.116;2024-02-15T09:21:12;9.30;99.90
15556;DHT22;7879;48.660;9.116;2024-02-15T09:23:41;9.40;99.90
15556;DHT22;7879;48.660;9.116;2024-02-15T09:26:08;9.50;99.90
15556;DHT22;7879;48.660;9.116;2024-02-15T09:28:36;9.60;99.90
15556;DHT22;7879;48.660;9.116;2024-02-15T09:31:04;9.80;99.90
15556;DHT22;7879;48.660;9.116;2024-02-15T09:33:31;9.90;99.90
15556;DHT22;7879;48.660;9.116;2024-02-15T09:35:58;10.00;99.90
15556;DHT22;7879;48.660;9.116;2024-02-15T09:38:25;10.10;99.90
15556;DHT22;7879;48.660;9.116;2024-02-15T09:40:52;10.20;99.90
15556;DHT22;7879;48.660;9.116;2024-02-15T09:43:19;10.30;99.90
15556;DHT22;7879;48.660;9.116;2024-02-15T09:45:47;10.40;99.90
15556;DHT22;7879;48.660;9.116;2024-02-15T09:48:16;10.60;99.90
15556;DHT22;7879;48.660;9.116;2024-02-15T09:50:45;10.70;99.90
15556;DHT22;7879;48.660;9.116;2024-02-15T09:53:15;10.90;99.90
15556;DHT22;7879;48.660;9.116;2024-02-15T09:55:42;11.00;99.90
15556;DHT22;7879;48.660;9.116;2024-02-15T09:58:10;11.20;99.90
15556;DHT22;7879;48.660;9.116;2024-02-15T10:00:39;11.40;99.90
15556;DHT22;7879;48.660;9.116;2024-02-15T10:03:07;11.50;99.90
15556;DHT22;7879;48.660;9.116;2024-02-15T10:05:35;11.70;99.90
15556;DHT22;7879;48.660;9.116;2024-02-15T10:08:02;11.80;99.90
15556;DHT22;7879;48.660;9.116;2024-02-15T10:10:30;12.00;99.90
15556;DHT22;7879;48.660;9.116;2024-02-15T10:13:00;12.30;99.90
15556;DHT22;7879;48.660;9.116;2024-02-15T10:18:04;12.70;99.90
15556;DHT22;7879;48.660;9.116;2024-02-15T10:20:33;12.90;99.90
15556;DHT22;7879;48.660;9.116;2024-02-15T10:25:33;13.30;99.90
15556;DHT22;7879;48.660;9.116;2024-02-15T10:28:14;13.50;99.90
15556;DHT22;7879;48.660;9.116;2024-02-15T10:30:43;13.60;99.90
15556;DHT22;7879;48.660;9.116;2024-02-15T10:33:32;13.70;99.90
15556;DHT22;7879;48.660;9.116;2024-02-15T10:36:10;13.70;99.90
15556;DHT22;7879;48.660;9.116;2024-02-15T10:38:38;13.90;99.90
15556;DHT22;7879;48.660;9.116;2024-02-15T10:41:08;14.10;99.90
15556;DHT22;7879;48.660;9.116;2024-02-15T10:43:36;14.30;99.90
15556;DHT22;7879;48.660;9.116;2024-02-15T10:46:11;14.40;99.90
15556;DHT22;7879;48.660;9.116;2024-02-15T10:48:39;14.60;99.90
15556;DHT22;7879;48.660;9.116;2024-02-15T10:51:10;14.60;99.90
15556;DHT22;7879;48.660;9.116;2024-02-15T10:53:47;14.60;99.90
15556;DHT22;7879;48.660;9.116;2024-02-15T10:56:27;14.80;99.90
15556;DHT22;7879;48.660;9.116;2024-02-15T10:59:11;14.90;99.90
15556;DHT22;7879;48.660;9.116;2024-02-15T11:01:40;14.90;99.90
15556;DHT22;7879;48.660;9.116;2024-02-15T11:04:14;15.10;99.90
15556;DHT22;7879;48.660;9.116;2024-02-15T11:06:43;15.20;99.90
15556;DHT22;7879;48.660;9.116;2024-02-15T11:09:11;15.40;99.90
15556;DHT22;7879;48.660;9.116;2024-02-15T11:11:41;15.50;99.90
15556;DHT22;7879;48.660;9.116;2024-02-15T11:14:28;15.50;99.90
15556;DHT22;7879;48.660;9.116;2024-02-15T11:16:56;15.50;99.90
15556;DHT22;7879;48.660;9.116;2024-02-15T11:22:11;15.70;99.90
15556;DHT22;7879;48.660;9.116;2024-02-15T11:24:50;15.80;99.90
15556;DHT22;7879;48.660;9.116;2024-02-15T11:27:28;15.80;99.90
15556;DHT22;7879;48.660;9.116;2024-02-15T11:32:45;15.60;99.90
15556;DHT22;7879;48.660;9.116;2024-02-15T11:35:25;15.40;99.90
15556;DHT22;7879;48.660;9.116;2024-02-15T11:37:55;15.30;99.90
15556;DHT22;7879;48.660;9.116;2024-02-15T11:40:26;15.20;99.90
15556;DHT22;7879;48.660;9.116;2024-02-15T11:42:54;15.20;99.90
15556;DHT22;7879;48.660;9.116;2024-02-15T11:45:22;15.20;99.90
15556;DHT22;7879;48.660;9.116;2024-02-15T11:47:51;15.20;99.90
15556;DHT22;7879;48.660;9.116;2024-02-15T11:50:22;15.20;99.90
15556;DHT22;7879;48.660;9.116;2024-02-15T11:52:50;15.20;99.90
15556;DHT22;7879;48.660;9.116;2024-02-15T11:55:21;15.20;99.90
15556;DHT22;7879;48.660;9.116;2024-02-15T11:58:02;15.30;99.90
15556;DHT22;7879;48.660;9.116;2024-02-15T12:00:32;15.30;99.90
15556;DHT22;7879;48.660;9.116;2024-02-15T12:03:18;15.40;99.90
15556;DHT22;7879;48.660;9.116;2024-02-15T12:06:07;15.40;99.90
15556;DHT22;7879;48.660;9.116;2024-02-15T12:08:54;15.40;99.90
15556;DHT22;7879;48.660;9.116;2024-02-15T12:11:40;15.40;99.90
15556;DHT22;7879;48.660;9.116;2024-02-15T12:14:25;15.50;99.90
15556;DHT22;7879;48.660;9.116;2024-02-15T12:17:12;15.50;99.90
15556;DHT22;7879;48.660;9.116;2024-02-15T12:20:03;15.50;99.90
15556;DHT22;7879;48.660;9.116;2024-02-15T12:22:44;15.40;99.90
15556;DHT22;7879;48.660;9.116;2024-02-15T12:25:16;15.40;99.90
15556;DHT22;7879;48.660;9.116;2024-02-15T12:27:46;15.30;99.90
15556;DHT22;7879;48.660;9.116;2024-02-15T12:30:19;15.30;99.90
15556;DHT22;7879;48.660;9.116;2024-02-15T12:32:50;15.40;99.90
15556;DHT22;7879;48.660;9.116;2024-02-15T12:35:22;15.30;99.90
15556;DHT22;7879;48.660;9.116;2024-02-15T12:38:01;15.40;99.90
15556;DHT22;7879;48.660;9.116;2024-02-15T12:40:33;15.40;99.90
15556;DHT22;7879;48.660;9.116;2024-02-15T12:43:01;15.40;99.90
15556;DHT22;7879;48.660;9.116;2024-02-15T12:45:28;15.40;99.90
15556;DHT22;7879;48.660;9.116;2024-02-15T12:47:56;15.40;99.90
15556;DHT22;7879;48.660;9.116;2024-02-15T12:50:30;15.40;99.90
15556;DHT22;7879;48.660;9.116;2024-02-15T12:52:57;15.30;99.90
15556;DHT22;7879;48.660;9.116;2024-02-15T12:55:36;15.40;99.90
15556;DHT22;7879;48.660;9.116;2024-02-15T12:58:14;15.40;99.90
15556;DHT22;7879;48.660;9.116;2024-02-15T13:00:43;15.40;99.90
15556;DHT22;7879;48.660;9.116;2024-02-15T13:03:12;15.30;99.90
15556;DHT22;7879;48.660;9.116;2024-02-15T13:05:41;15.30;99.90
15556;DHT22;7879;48.660;9.116;2024-02-15T13:08:08;15.30;99.90
15556;DHT22;7879;48.660;9.116;2024-02-15T13:10:41;15.30;99.90
15556;DHT22;7879;48.660;9.116;2024-02-15T13:13:09;15.40;99.90
15556;DHT22;7879;48.660;9.116;2024-02-15T13:15:42;15.30;99.90
15556;DHT22;7879;48.660;9.116;2024-02-15T13:18:09;15.40;99.90
15556;DHT22;7879;48.660;9.116;2024-02-15T13:20:38;15.40;99.90
15556;DHT22;7879;48.660;9.116;2024-02-15T13:23:10;15.30;99.90
15556;DHT22;7879;48.660;9.116;2024-02-15T13:25:49;15.30;99.90
15556;DHT22;7879;48.660;9.116;2024-02-15T13:28:17;15.40;99.90
15556;DHT22;7879;48.660;9.116;2024-02-15T13:30:45;15.40;99.90
15556;DHT22;7879;48.660;9.116;2024-02-15T13:33:13;15.40;99.90
15556;DHT22;7879;48.660;9.116;2024-02-15T13:35:41;15.40;99.90
15556;DHT22;7879;48.660;9.116;2024-02-15T13:38:08;15.40;99.90
15556;DHT22;7879;48.660;9.116;2024-02-15T13:40:42;15.40;99.90
15556;DHT22;7879;48.660;9.116;2024-02-15T13:43:11;15.50;99.90
15556;DHT22;7879;48.660;9.116;2024-02-15T13:45:40;15.40;99.90
15556;DHT22;7879;48.660;9.116;2024-02-15T13:48:08;15.50;99.90
15556;DHT22;7879;48.660;9.116;2024-02-15T13:50:37;15.50;99.90
15556;DHT22;7879;48.660;9.116;2024-02-15T13:53:06;15.50;99.90
15556;DHT22;7879;48.660;9.116;2024-02-15T13:55:37;15.50;99.90
15556;DHT22;7879;48.660;9.116;2024-02-15T13:58:04;15.60;99.90
15556;DHT22;7879;48.660;9.116;2024-02-15T14:00:31;15.50;99.90
15556;DHT22;7879;48.660;9.116;2024-02-15T14:03:02;15.50;99.90
15556;DHT22;7879;48.660;9.116;2024-02-15T14:05:31;15.40;99.90
15556;DHT22;7879;48.660;9.116;2024-02-15T14:08:03;15.40;99.90
15556;DHT22;7879;48.660;9.116;2024-02-15T14:10:33;15.40;99.90
15556;DHT22;7879;48.660;9.116;2024-02-15T14:13:03;15.40;99.90
15556;DHT22;7879;48.660;9.116;2024-02-15T14:15:33;15.40;99.90
15556;DHT22;7879;48.660;9.116;2024-02-15T14:18:09;15.40;99.90
15556;DHT22;7879;48.660;9.116;2024-02-15T14:20:46;15.40;99.90
15556;DHT22;7879;48.660;9.116;2024-02-15T14:23:14;15.40;99.90
15556;DHT22;7879;48.660;9.116;2024-02-15T14:25:43;15.50;99.90
15556;DHT22;7879;48.660;9.116;2024-02-15T14:28:11;15.50;99.90
15556;DHT22;7879;48.660;9.116;2024-02-15T14:30:39;15.50;99.90
15556;DHT22;7879;48.660;9.116;2024-02-15T14:33:25;15.50;99.90
15556;DHT22;7879;48.660;9.116;2024-02-15T14:36:00;15.50;99.90
15556;DHT22;7879;48.660;9.116;2024-02-15T14:38:28;15.50;99.90
15556;DHT22;7879;48.660;9.116;2024-02-15T14:40:56;15.40;99.90
15556;DHT22;7879;48.660;9.116;2024-02-15T14:43:25;15.50;99.90
15556;DHT22;7879;48.660;9.116;2024-02-15T14:45:54;15.50;99.90
15556;DHT22;7879;48.660;9.116;2024-02-15T14:48:24;15.50;99.90
15556;DHT22;7879;48.660;9.116;2024-02-15T14:50:52;15.50;99.90
15556;DHT22;7879;48.660;9.116;2024-02-15T14:53:20;15.50;99.90
15556;DHT22;7879;48.660;9.116;2024-02-15T14:55:48;15.50;99.90
15556;DHT22;7879;48.660;9.116;2024-02-15T14:58:16;15.50;99.90
15556;DHT22;7879;48.660;9.116;2024-02-15T15:00:48;15.40;99.90
15556;DHT22;7879;48.660;9.116;2024-02-15T15:03:16;15.40;99.90
15556;DHT22;7879;48.660;9.116;2024-02-15T15:05:44;15.40;99.90
15556;DHT22;7879;48.660;9.116;2024-02-15T15:08:31;15.40;99.90
15556;DHT22;7879;48.660;9.116;2024-02-15T15:11:17;15.40;99.90
15556;DHT22;7879;48.660;9.116;2024-02-15T15:14:03;15.40;99.90
15556;DHT22;7879;48.660;9.116;2024-02-15T15:16:33;15.40;99.90
15556;DHT22;7879;48.660;9.116;2024-02-15T15:19:04;15.40;99.90
15556;DHT22;7879;48.660;9.116;2024-02-15T15:21:31;15.40;99.90
15556;DHT22;7879;48.660;9.116;2024-02-15T15:24:01;15.30;99.90
15556;DHT22;7879;48.660;9.116;2024-02-15T15:26:28;15.30;99.90
15556;DHT22;7879;48.660;9.116;2024-02-15T15:28:58;15.20;99.90
15556;DHT22;7879;48.660;9.116;2024-02-15T15:31:27;15.20;99.90
15556;DHT22;7879;48.660;9.116;2024-02-15T15:33:54;15.20;99.90
15556;DHT22;7879;48.660;9.116;2024-02-15T15:36:22;15.20;99.90
15556;DHT22;7879;48.660;9.116;2024-02-15T15:38:49;15.10;99.90
15556;DHT22;7879;48.660;9.116;2024-02-15T15:41:17;15.20;99.90
15556;DHT22;7879;48.660;9.116;2024-02-15T15:43:45;15.10;99.90
15556;DHT22;7879;48.660;9.116;2024-02-15T15:46:14;15.10;99.90
15556;DHT22;7879;48.660;9.116;2024-02-15T15:48:44;15.10;99.90
15556;DHT22;7879;48.660;9.116;2024-02-15T15:51:12;15.10;99.90
15556;DHT22;7879;48.660;9.116;2024-02-15T15:53:42;15.00;99.90
15556;DHT22;7879;48.660;9.116;2024-02-15T15:56:12;15.00;99.90
15556;DHT22;7879;48.660;9.116;2024-02-15T15:58:40;14.90;99.90
15556;DHT22;7879;48.660;9.116;2024-02-15T16:01:12;14.90;99.90
15556;DHT22;7879;48.660;9.116;2024-02-15T16:03:39;14.90;99.90
15556;DHT22;7879;48.660;9.116;2024-02-15T16:06:07;14.90;99.90
15556;DHT22;7879;48.660;9.116;2024-02-15T16:08:35;14.80;99.90
15556;DHT22;7879;48.660;9.116;2024-02-15T16:11:02;14.80;99.90
15556;DHT22;7879;48.660;9.116;2024-02-15T16:13:33;14.80;99.90
15556;DHT22;7879;48.660;9.116;2024-02-15T16:16:02;14.70;99.90
15556;DHT22;7879;48.660;9.116;2024-02-15T16:18:31;14.60;99.90
15556;DHT22;7879;48.660;9.116;2024-02-15T16:20:58;14.60;99.90